createdAt,value
2018-08-17T00:02:13.360Z,201.77
2018-08-17T00:04:41.758Z,195.83
2018-08-17T00:07:10.318Z,192.73
2018-08-17T00:09:38.935Z,183.60
2018-08-17T00:12:07.385Z,199.60
2018-08-17T00:14:37.159Z,255.73
2018-08-17T00:17:05.500Z,391.90
2018-08-17T00:19:33.781Z,289.97
2018-08-17T00:22:02.132Z,274.97
2018-08-17T00:24:30.423Z,273.90
2018-08-17T00:26:59.247Z,266.90
2018-08-17T00:29:27.543Z,258.70
2018-08-17T00:31:56.104Z,256.17
2018-08-17T00:34:24.608Z,242.37
2018-08-17T00:36:52.907Z,241.23
2018-08-17T00:39:21.188Z,235.50
2018-08-17T00:41:49.581Z,232.20
2018-08-17T00:44:17.877Z,230.97
2018-08-17T00:46:46.172Z,223.03
2018-08-17T00:49:14.787Z,221.27
2018-08-17T00:51:43.109Z,219.43
2018-08-17T00:54:11.386Z,209.40
2018-08-17T00:56:39.709Z,212.33
2018-08-17T00:59:07.982Z,204.27
2018-08-17T01:01:36.264Z,187.17
2018-08-17T01:04:04.527Z,191.40
2018-08-17T01:06:32.989Z,191.13
2018-08-17T01:09:01.287Z,191.17
2018-08-17T01:11:29.563Z,178.23
2018-08-17T01:13:57.840Z,189.57
2018-08-17T01:16:26.151Z,179.73
2018-08-17T01:18:54.457Z,176.90
2018-08-17T01:21:22.770Z,170.03
2018-08-17T01:23:51.060Z,169.87
2018-08-17T01:26:19.359Z,165.87
2018-08-17T01:28:48.052Z,155.07
2018-08-17T01:31:16.321Z,156.53
2018-08-17T01:33:44.646Z,147.47
2018-08-17T01:36:13.034Z,139.80
2018-08-17T01:38:41.324Z,134.10
2018-08-17T01:41:09.602Z,123.27
2018-08-17T01:43:37.925Z,110.57
2018-08-17T01:46:06.319Z,113.90
2018-08-17T01:48:34.646Z,111.20
2018-08-17T01:51:03.004Z,105.77
2018-08-17T01:53:31.303Z,97.63
2018-08-17T01:56:00.106Z,99.97
2018-08-17T01:58:28.417Z,95.73
2018-08-17T02:00:56.696Z,89.93
2018-08-17T02:03:25.267Z,87.63
2018-08-17T02:05:53.554Z,83.67
2018-08-17T02:08:21.908Z,74.43
2018-08-17T02:10:50.193Z,72.57
2018-08-17T02:13:18.456Z,79.57
2018-08-17T02:15:46.749Z,74.47
2018-08-17T02:18:15.055Z,67.70
2018-08-17T02:20:43.352Z,73.53
2018-08-17T02:23:11.670Z,67.77
2018-08-17T02:25:39.939Z,73.73
2018-08-17T02:28:08.206Z,62.17
2018-08-17T02:30:36.801Z,65.00
2018-08-17T02:33:05.420Z,60.50
2018-08-17T02:35:33.697Z,60.70
2018-08-17T02:38:02.687Z,58.80
2018-08-17T02:40:30.945Z,57.23
2018-08-17T02:43:00.027Z,58.77
2018-08-17T02:45:28.439Z,52.07
2018-08-17T02:47:56.988Z,51.63
2018-08-17T02:50:25.332Z,52.17
2018-08-17T02:52:54.633Z,50.37
2018-08-17T02:57:52.632Z,40.47
2018-08-17T03:00:21.552Z,44.47
2018-08-17T03:02:50.205Z,42.30
2018-08-17T03:05:18.579Z,42.47
2018-08-17T03:07:46.990Z,55.00
2018-08-17T03:10:15.797Z,50.70
2018-08-17T03:12:44.537Z,45.93
2018-08-17T03:15:12.863Z,46.30
2018-08-17T03:17:41.128Z,44.00
2018-08-17T03:20:09.529Z,42.80
2018-08-17T03:22:37.920Z,48.07
2018-08-17T03:25:06.319Z,41.07
2018-08-17T03:27:34.698Z,38.40
2018-08-17T03:30:02.965Z,35.10
2018-08-17T03:32:31.240Z,38.47
2018-08-17T03:34:59.514Z,42.43
2018-08-17T03:37:27.791Z,43.50
2018-08-17T03:39:56.085Z,36.83
2018-08-17T03:42:24.357Z,35.57
2018-08-17T03:44:52.662Z,34.27
2018-08-17T03:47:20.973Z,34.23
2018-08-17T03:49:49.234Z,37.73
2018-08-17T03:52:17.546Z,34.63
2018-08-17T03:54:45.886Z,35.03
2018-08-17T03:57:14.178Z,31.40
2018-08-17T03:59:42.468Z,30.43
2018-08-17T04:02:10.860Z,29.37
2018-08-17T04:04:39.117Z,30.20
2018-08-17T04:07:07.395Z,28.63
2018-08-17T04:09:35.670Z,29.37
2018-08-17T04:12:03.970Z,26.30
2018-08-17T04:14:32.269Z,25.40
2018-08-17T04:17:00.567Z,25.70
2018-08-17T04:19:28.842Z,25.87
2018-08-17T04:21:57.148Z,27.97
2018-08-17T04:24:25.439Z,24.23
2018-08-17T04:26:53.710Z,24.27
2018-08-17T04:29:22.001Z,21.73
2018-08-17T04:31:50.322Z,20.93
2018-08-17T04:34:18.616Z,22.60
2018-08-17T04:36:46.886Z,22.67
2018-08-17T04:39:15.179Z,21.83
2018-08-17T04:41:43.475Z,21.77
2018-08-17T04:44:11.784Z,17.83
2018-08-17T04:46:40.151Z,19.57
2018-08-17T04:49:08.502Z,19.50
2018-08-17T04:51:36.783Z,19.87
2018-08-17T04:54:05.060Z,17.97
2018-08-17T04:56:33.354Z,18.93
2018-08-17T04:59:01.673Z,16.53
2018-08-17T05:01:29.960Z,16.93
2018-08-17T05:03:58.258Z,15.37
2018-08-17T05:06:26.551Z,14.87
2018-08-17T05:08:54.861Z,14.90
2018-08-17T05:11:23.131Z,14.63
2018-08-17T05:13:51.420Z,16.43
2018-08-17T05:16:19.701Z,15.53
2018-08-17T05:18:48.037Z,13.63
2018-08-17T05:21:16.374Z,14.10
2018-08-17T05:23:44.731Z,12.57
2018-08-17T05:26:13.015Z,11.80
2018-08-17T05:28:41.317Z,14.10
2018-08-17T05:31:09.623Z,10.90
2018-08-17T05:33:37.894Z,12.03
2018-08-17T05:36:06.248Z,11.30
2018-08-17T05:38:34.505Z,10.37
2018-08-17T05:41:02.798Z,10.20
2018-08-17T05:43:31.084Z,9.37
2018-08-17T05:45:59.391Z,11.47
2018-08-17T05:48:27.670Z,9.43
2018-08-17T05:50:56.055Z,11.40
2018-08-17T05:53:24.327Z,9.80
2018-08-17T05:55:52.611Z,8.73
2018-08-17T05:58:20.983Z,9.17
2018-08-17T06:00:49.270Z,7.90
2018-08-17T06:03:17.544Z,8.43
2018-08-17T06:05:45.803Z,10.93
2018-08-17T06:08:14.089Z,9.17
2018-08-17T06:10:42.387Z,6.23
2018-08-17T06:13:10.745Z,7.97
2018-08-17T06:15:39.045Z,8.63
2018-08-17T06:18:07.344Z,7.50
2018-08-17T06:20:35.782Z,7.03
2018-08-17T06:23:04.110Z,6.23
2018-08-17T06:25:32.503Z,7.50
2018-08-17T06:28:00.893Z,8.47
2018-08-17T06:30:29.231Z,10.33
2018-08-17T06:32:57.487Z,7.03
2018-08-17T06:35:25.799Z,7.07
2018-08-17T06:37:54.099Z,8.03
2018-08-17T06:40:22.408Z,5.47
2018-08-17T06:42:50.715Z,6.33
2018-08-17T06:45:18.998Z,6.13
2018-08-17T06:47:47.321Z,6.60
2018-08-17T06:50:15.714Z,8.73
2018-08-17T06:52:44.026Z,9.77
2018-08-17T06:55:12.851Z,12.00
2018-08-17T06:57:41.378Z,36.07
2018-08-17T07:00:12.151Z,22.53
2018-08-17T07:02:41.092Z,18.53
2018-08-17T07:05:09.379Z,16.23
2018-08-17T07:07:37.670Z,13.47
2018-08-17T07:10:06.743Z,13.57
2018-08-17T07:12:35.018Z,16.60
2018-08-17T07:15:03.669Z,20.07
2018-08-17T07:17:31.982Z,20.87
2018-08-17T07:20:00.527Z,15.43
2018-08-17T07:22:29.095Z,16.10
2018-08-17T07:24:57.433Z,11.90
2018-08-17T07:27:25.919Z,14.27
2018-08-17T07:29:54.226Z,11.73
2018-08-17T07:32:22.576Z,22.60
2018-08-17T07:34:50.986Z,20.53
2018-08-17T07:37:19.302Z,18.40
2018-08-17T07:39:47.625Z,20.50
2018-08-17T07:42:15.936Z,21.87
2018-08-17T07:44:44.227Z,17.00
2018-08-17T07:47:12.561Z,19.07
2018-08-17T07:49:40.947Z,18.77
2018-08-17T07:52:09.716Z,17.30
2018-08-17T07:54:38.068Z,14.40
2018-08-17T07:57:06.800Z,13.47
2018-08-17T07:59:35.463Z,13.23
2018-08-17T08:02:03.903Z,11.20
2018-08-17T08:04:33.240Z,12.47
2018-08-17T08:07:01.741Z,12.83
2018-08-17T08:09:30.063Z,11.73
2018-08-17T08:11:59.323Z,10.23
2018-08-17T08:14:27.700Z,11.60
2018-08-17T08:16:56.105Z,11.80
2018-08-17T08:19:24.415Z,10.97
2018-08-17T08:21:52.711Z,10.33
2018-08-17T08:24:21.040Z,11.37
2018-08-17T08:26:49.319Z,10.60
2018-08-17T08:29:17.600Z,7.77
2018-08-17T08:31:45.868Z,7.33
2018-08-17T08:34:14.547Z,6.07
2018-08-17T08:36:42.843Z,8.90
2018-08-17T08:39:12.822Z,11.47
2018-08-17T08:41:41.362Z,8.77
2018-08-17T08:44:09.684Z,5.33
2018-08-17T08:46:38.365Z,8.83
2018-08-17T08:49:06.853Z,9.87
2018-08-17T08:51:35.249Z,6.67
2018-08-17T08:54:03.751Z,9.23
2018-08-17T08:56:32.046Z,9.00
2018-08-17T08:59:00.322Z,7.80
2018-08-17T09:01:28.609Z,6.00
2018-08-17T09:03:57.256Z,11.70
2018-08-17T09:06:25.549Z,13.37
2018-08-17T09:08:53.875Z,10.97
2018-08-17T09:11:22.256Z,12.93
2018-08-17T09:13:50.727Z,15.00
2018-08-17T09:16:18.982Z,14.80
2018-08-17T09:18:47.263Z,17.13
2018-08-17T09:21:15.514Z,18.73
2018-08-17T09:23:43.821Z,18.53
2018-08-17T09:26:12.079Z,15.50
2018-08-17T09:28:40.359Z,23.23
2018-08-17T09:31:08.907Z,20.87
2018-08-17T09:33:37.601Z,20.10
2018-08-17T09:36:06.113Z,17.53
2018-08-17T09:38:34.367Z,22.60
2018-08-17T09:41:02.719Z,20.30
2018-08-17T09:43:30.977Z,22.87
2018-08-17T09:45:59.309Z,22.80
2018-08-17T09:48:27.614Z,24.43
2018-08-17T09:50:56.007Z,24.23
2018-08-17T09:53:24.403Z,22.53
2018-08-17T09:55:52.732Z,20.80
2018-08-17T09:58:21.039Z,17.57
2018-08-17T10:00:54.807Z,19.77
2018-08-17T10:03:28.561Z,21.23
2018-08-17T10:06:02.317Z,16.67
2018-08-17T10:08:31.819Z,14.97
2018-08-17T10:11:00.272Z,12.17
2018-08-17T10:13:28.611Z,16.20
2018-08-17T10:15:57.036Z,24.63
2018-08-17T10:18:30.118Z,42.37
2018-08-17T10:20:58.596Z,16.50
2018-08-17T10:23:26.723Z,17.30
2018-08-17T10:25:55.007Z,16.07
2018-08-17T10:28:23.280Z,10.80
2018-08-17T10:30:51.682Z,12.60
2018-08-17T10:33:20.006Z,11.07
2018-08-17T10:35:48.328Z,9.50
2018-08-17T10:38:16.667Z,6.27
2018-08-17T10:40:44.997Z,5.13
2018-08-17T10:43:13.247Z,5.03
2018-08-17T10:45:41.632Z,5.87
2018-08-17T10:48:09.904Z,14.03
2018-08-17T10:50:38.211Z,22.37
2018-08-17T10:53:06.578Z,48.20
2018-08-17T10:55:41.884Z,26.07
2018-08-17T10:58:12.860Z,19.27
2018-08-17T11:00:41.410Z,15.60
2018-08-17T11:03:09.824Z,9.67
2018-08-17T11:05:38.178Z,83.13
2018-08-17T11:08:06.545Z,18.57
2018-08-17T11:10:34.890Z,20.63
2018-08-17T11:13:03.193Z,20.17
2018-08-17T11:15:31.496Z,19.67
2018-08-17T11:17:59.939Z,21.93
2018-08-17T11:20:28.195Z,11.70
2018-08-17T11:22:56.543Z,12.13
2018-08-17T11:25:24.808Z,11.10
2018-08-17T11:27:53.223Z,11.17
2018-08-17T11:30:21.513Z,8.13
2018-08-17T11:32:49.874Z,8.20
2018-08-17T11:35:18.191Z,11.47
2018-08-17T11:37:46.462Z,8.20
2018-08-17T11:40:14.722Z,5.83
2018-08-17T11:42:45.321Z,6.30
2018-08-17T11:45:16.989Z,7.30
2018-08-17T11:47:45.766Z,6.10
2018-08-17T11:50:19.588Z,6.27
2018-08-17T11:52:50.823Z,9.47
2018-08-17T11:55:19.612Z,5.57
2018-08-17T11:57:48.354Z,7.27
2018-08-17T12:00:16.813Z,4.60
2018-08-17T12:02:46.151Z,8.90
2018-08-17T12:05:14.698Z,3.13
2018-08-17T12:07:44.228Z,4.87
2018-08-17T12:10:12.809Z,9.53
2018-08-17T12:12:42.671Z,12.33
2018-08-17T12:15:11.857Z,6.03
2018-08-17T12:17:40.687Z,12.30
2018-08-17T12:20:08.985Z,7.37
2018-08-17T12:22:37.312Z,6.87
2018-08-17T12:25:06.713Z,6.17
2018-08-17T12:27:34.955Z,5.23
2018-08-17T12:30:03.242Z,5.40
2018-08-17T12:32:31.531Z,6.13
2018-08-17T12:34:59.819Z,13.23
2018-08-17T12:37:28.792Z,14.23
2018-08-17T12:39:57.560Z,11.43
2018-08-17T12:42:25.812Z,11.23
2018-08-17T12:44:58.679Z,15.00
2018-08-17T12:47:26.943Z,7.90
2018-08-17T12:49:55.271Z,11.50
2018-08-17T12:52:23.624Z,8.77
2018-08-17T12:54:51.873Z,9.00
2018-08-17T12:57:20.204Z,13.33
2018-08-17T12:59:48.520Z,7.53
2018-08-17T13:02:16.819Z,7.30
2018-08-17T13:04:45.106Z,8.93
2018-08-17T13:07:13.415Z,7.00
2018-08-17T13:09:41.677Z,6.97
2018-08-17T13:12:09.966Z,4.77
2018-08-17T13:14:38.249Z,5.83
2018-08-17T13:17:06.575Z,6.50
2018-08-17T13:19:34.836Z,5.33
2018-08-17T13:22:03.138Z,4.80
2018-08-17T13:24:31.445Z,6.40
2018-08-17T13:26:59.722Z,5.10
2018-08-17T13:29:27.983Z,4.70
2018-08-17T13:31:56.275Z,5.23
2018-08-17T13:34:24.552Z,4.00
2018-08-17T13:36:52.848Z,4.43
2018-08-17T13:39:21.194Z,4.00
2018-08-17T13:41:49.482Z,5.53
2018-08-17T13:44:17.790Z,5.40
2018-08-17T13:46:46.056Z,4.63
2018-08-17T13:49:14.366Z,4.40
2018-08-17T13:51:42.731Z,8.83
2018-08-17T13:54:10.996Z,5.53
2018-08-17T13:56:39.284Z,10.20
2018-08-17T13:59:07.563Z,5.07
2018-08-17T14:01:35.857Z,8.90
2018-08-17T14:04:04.141Z,8.13
2018-08-17T14:06:32.521Z,6.03
2018-08-17T14:09:00.787Z,4.47
2018-08-17T14:11:29.108Z,5.10
2018-08-17T14:13:57.380Z,4.57
2018-08-17T14:16:25.670Z,3.63
2018-08-17T14:18:54.003Z,3.50
2018-08-17T14:21:22.304Z,2.67
2018-08-17T14:23:50.574Z,3.37
2018-08-17T14:26:19.578Z,4.07
2018-08-17T14:28:48.111Z,5.30
2018-08-17T14:31:16.402Z,5.40
2018-08-17T14:33:44.682Z,4.30
2018-08-17T14:36:13.142Z,5.73
2018-08-17T14:38:41.764Z,5.40
2018-08-17T14:41:10.109Z,4.43
2018-08-17T14:43:38.679Z,4.20
2018-08-17T14:46:07.003Z,2.83
2018-08-17T14:48:36.038Z,3.93
2018-08-17T14:51:04.403Z,5.53
2018-08-17T14:53:33.022Z,8.10
2018-08-17T14:56:01.543Z,12.57
2018-08-17T14:58:30.378Z,14.70
2018-08-17T15:00:58.838Z,10.30
2018-08-17T15:03:27.115Z,8.77
2018-08-17T15:05:55.682Z,11.80
2018-08-17T15:08:24.154Z,10.23
2018-08-17T15:10:52.802Z,9.07
2018-08-17T15:13:21.224Z,9.33
2018-08-17T15:15:49.520Z,6.70
2018-08-17T15:18:18.376Z,12.47
2018-08-17T15:20:46.670Z,11.57
2018-08-17T15:23:15.526Z,11.07
2018-08-17T15:25:43.812Z,7.23
2018-08-17T15:28:12.384Z,8.67
2018-08-17T15:30:40.907Z,6.67
2018-08-17T15:33:09.670Z,4.37
2018-08-17T15:35:37.942Z,6.23
2018-08-17T15:38:06.232Z,7.27
2018-08-17T15:40:34.736Z,12.80
2018-08-17T15:43:10.155Z,7.77
2018-08-17T15:45:38.456Z,8.47
2018-08-17T15:48:06.751Z,8.60
2018-08-17T15:50:35.014Z,8.10
2018-08-17T15:53:03.300Z,5.93
2018-08-17T15:55:31.670Z,6.70
2018-08-17T15:58:00.055Z,4.80
2018-08-17T16:00:28.412Z,3.93
2018-08-17T16:02:56.724Z,7.67
2018-08-17T16:05:25.015Z,4.43
2018-08-17T16:07:53.287Z,7.60
2018-08-17T16:10:21.572Z,6.33
2018-08-17T16:12:49.927Z,3.50
2018-08-17T16:15:18.239Z,13.60
2018-08-17T16:17:46.593Z,5.00
2018-08-17T16:20:15.003Z,5.30
2018-08-17T16:22:44.609Z,5.03
2018-08-17T16:25:13.479Z,7.47
2018-08-17T16:27:42.521Z,5.07
2018-08-17T16:30:12.502Z,3.70
2018-08-17T16:32:41.194Z,3.93
2018-08-17T16:35:09.666Z,2.53
2018-08-17T16:37:43.605Z,215.20
2018-08-17T16:40:11.915Z,82.87
2018-08-17T16:42:40.221Z,50.53
2018-08-17T16:45:09.015Z,35.40
2018-08-17T16:47:37.339Z,30.53
2018-08-17T16:50:06.795Z,17.20
2018-08-17T16:52:35.191Z,51.83
2018-08-17T16:55:03.711Z,187.37
2018-08-17T16:57:32.105Z,143.83
2018-08-17T17:00:00.372Z,84.10
2018-08-17T17:02:28.671Z,56.40
2018-08-17T17:04:56.989Z,36.13
2018-08-17T17:07:31.650Z,25.80
2018-08-17T17:10:00.399Z,20.73
2018-08-17T17:12:28.703Z,17.70
2018-08-17T17:15:08.156Z,16.53
2018-08-17T17:17:36.442Z,37.87
2018-08-17T17:20:05.989Z,35.40
2018-08-17T17:22:34.327Z,49.57
2018-08-17T17:25:20.279Z,72.00
2018-08-17T17:27:49.488Z,48.30
2018-08-17T17:30:17.783Z,56.70
2018-08-17T17:32:46.071Z,109.23
2018-08-17T17:35:14.355Z,86.67
2018-08-17T17:37:42.746Z,72.73
2018-08-17T17:40:11.098Z,65.07
2018-08-17T17:42:39.518Z,50.17
2018-08-17T17:45:07.895Z,39.07
2018-08-17T17:47:36.183Z,25.40
2018-08-17T17:50:04.556Z,29.07
2018-08-17T17:52:32.826Z,25.53
2018-08-17T17:55:01.146Z,19.37
2018-08-17T17:57:29.456Z,23.93
2018-08-17T17:59:58.381Z,15.03
2018-08-17T18:02:27.784Z,14.70
2018-08-17T18:04:56.095Z,9.17
2018-08-17T18:07:30.036Z,6.27
2018-08-17T18:09:58.371Z,13.77
2018-08-17T18:12:26.672Z,25.70
2018-08-17T18:14:54.949Z,12.00
2018-08-17T18:17:23.232Z,13.57
2018-08-17T18:19:53.431Z,18.17
2018-08-17T18:22:31.730Z,8.87
2018-08-17T18:25:05.533Z,8.73
2018-08-17T18:27:33.885Z,6.63
2018-08-17T18:30:03.319Z,4.57
2018-08-17T18:32:32.911Z,9.50
2018-08-17T18:35:01.368Z,12.10
2018-08-17T18:37:29.622Z,12.73
2018-08-17T18:39:58.207Z,12.17
2018-08-17T18:42:26.494Z,7.93
2018-08-17T18:44:55.073Z,8.47
2018-08-17T18:47:23.420Z,5.60
2018-08-17T18:49:51.691Z,5.10
2018-08-17T18:52:20.025Z,6.60
2018-08-17T18:54:48.573Z,15.70
2018-08-17T18:57:16.964Z,4.33
2018-08-17T18:59:45.258Z,5.43
2018-08-17T19:02:13.669Z,6.87
2018-08-17T19:04:42.187Z,8.37
2018-08-17T19:07:10.641Z,5.97
2018-08-17T19:09:38.933Z,3.43
2018-08-17T19:12:07.672Z,7.93
2018-08-17T19:14:41.754Z,15.07
2018-08-17T19:17:14.442Z,7.87
2018-08-17T19:19:43.001Z,15.43
2018-08-17T19:22:11.528Z,20.30
2018-08-17T19:24:40.163Z,20.30
2018-08-17T19:27:09.434Z,14.70
2018-08-17T19:29:37.805Z,11.57
2018-08-17T19:32:06.842Z,18.97
2018-08-17T19:34:35.322Z,26.33
2018-08-17T19:37:03.751Z,29.67
2018-08-17T19:39:33.381Z,20.23
2018-08-17T19:42:02.412Z,9.53
2018-08-17T19:44:30.948Z,8.70
2018-08-17T19:46:59.578Z,8.03
2018-08-17T19:49:27.946Z,6.53
2018-08-17T19:51:56.360Z,6.67
2018-08-17T19:54:24.751Z,5.13
2018-08-17T19:56:53.236Z,4.37
2018-08-17T19:59:21.563Z,3.63
2018-08-17T20:01:50.083Z,4.53
2018-08-17T20:04:18.687Z,4.30
2018-08-17T20:06:47.459Z,10.37
2018-08-17T20:09:16.005Z,8.47
2018-08-17T20:11:44.387Z,7.20
2018-08-17T20:14:12.868Z,7.20
2018-08-17T20:16:41.339Z,5.97
2018-08-17T20:19:09.888Z,6.33
2018-08-17T20:21:38.557Z,6.40
2018-08-17T20:24:07.361Z,3.93
2018-08-17T20:26:36.080Z,7.00
2018-08-17T20:29:04.275Z,4.77
2018-08-17T20:31:32.696Z,5.00
2018-08-17T20:34:01.306Z,5.30
2018-08-17T20:36:29.693Z,3.00
2018-08-17T20:38:58.264Z,7.10
2018-08-17T20:41:27.090Z,6.53
2018-08-17T20:43:55.922Z,5.13
2018-08-17T20:46:24.479Z,4.90
2018-08-17T20:48:52.865Z,4.60
2018-08-17T20:51:25.520Z,6.70
2018-08-17T20:53:54.835Z,3.77
2018-08-17T20:56:23.126Z,7.97
2018-08-17T20:58:51.478Z,20.33
2018-08-17T21:01:19.858Z,12.17
2018-08-17T21:03:48.254Z,11.03
2018-08-17T21:06:16.651Z,13.07
2018-08-17T21:08:44.982Z,10.50
2018-08-17T21:11:13.297Z,13.37
2018-08-17T21:13:41.730Z,9.57
2018-08-17T21:16:10.121Z,9.43
2018-08-17T21:18:38.439Z,8.90
2018-08-17T21:21:06.818Z,14.27
2018-08-17T21:23:35.285Z,12.03
2018-08-17T21:26:03.661Z,26.37
2018-08-17T21:28:32.159Z,15.60
2018-08-17T21:31:00.706Z,25.03
2018-08-17T21:33:29.291Z,22.37
2018-08-17T21:35:58.375Z,14.40
2018-08-17T21:38:26.820Z,17.67
2018-08-17T21:40:55.256Z,13.50
2018-08-17T21:43:23.575Z,9.43
2018-08-17T21:45:56.168Z,8.17
2018-08-17T21:48:27.707Z,8.07
2018-08-17T21:50:56.623Z,9.10
2018-08-17T21:53:24.981Z,5.57
2018-08-17T21:55:53.340Z,8.27
2018-08-17T21:58:21.690Z,7.03
2018-08-17T22:00:50.096Z,8.37
2018-08-17T22:03:36.420Z,7.73
2018-08-17T22:06:05.242Z,4.50
2018-08-17T22:08:33.610Z,6.63
2018-08-17T22:11:01.926Z,9.20
2018-08-17T22:13:33.843Z,26.67
2018-08-17T22:16:02.622Z,32.27
2018-08-17T22:18:31.431Z,40.90
2018-08-17T22:20:59.842Z,35.30
2018-08-17T22:23:28.529Z,25.10
2018-08-17T22:25:57.081Z,24.17
2018-08-17T22:28:25.392Z,20.70
2018-08-17T22:30:53.773Z,26.50
2018-08-17T22:33:22.159Z,22.60
2018-08-17T22:35:50.575Z,20.53
2018-08-17T22:38:18.943Z,22.00
2018-08-17T22:40:47.249Z,23.17
2018-08-17T22:43:15.608Z,20.93
2018-08-17T22:45:43.894Z,21.77
2018-08-17T22:48:12.326Z,20.20
2018-08-17T22:50:40.560Z,21.33
2018-08-17T22:53:08.890Z,18.70
2018-08-17T22:55:37.272Z,19.50
2018-08-17T22:58:05.560Z,59.03
2018-08-17T23:00:33.869Z,74.13
2018-08-17T23:03:02.503Z,99.53
2018-08-17T23:05:33.989Z,76.37
2018-08-17T23:08:02.285Z,46.77
2018-08-17T23:10:30.624Z,51.37
2018-08-17T23:12:59.108Z,49.47
2018-08-17T23:15:27.419Z,50.33
2018-08-17T23:17:58.064Z,53.73
2018-08-17T23:20:31.583Z,50.63
2018-08-17T23:23:01.032Z,46.43
2018-08-17T23:25:29.521Z,47.37
2018-08-17T23:27:57.878Z,50.10
2018-08-17T23:30:26.193Z,48.27
2018-08-17T23:32:54.545Z,49.30
2018-08-17T23:35:22.801Z,132.27
2018-08-17T23:37:51.323Z,176.17
2018-08-17T23:40:19.628Z,110.47
2018-08-17T23:42:47.949Z,91.50
2018-08-17T23:45:17.261Z,79.10
2018-08-17T23:47:45.637Z,75.80
2018-08-17T23:50:14.964Z,69.87
2018-08-17T23:52:43.523Z,63.93
2018-08-17T23:55:14.773Z,64.70
2018-08-17T23:57:43.112Z,72.90
